Trimble, Ohio
Current Conditions -  °F | °C
As of 1:55 AM on Thursday 23 Oct 2014 (Local Time) from KUNI Reporting Station
Clear Clear  
Wind Chill: 40°   Ceiling: Unl
Heat Index: 40°   Visibility: 10mi
Dew Point: 36°   Wind: 3mph
Humidity: 88%   Direction: 280°W
Pressure: 30.21"   Gusts: NA
Location:  39.48°N, 82.08°W
Report Text: KUNI 230555Z AUTO 28003KT 10SM CLR 04/02 A3021 RMK AO2 T00420024 10095 20042
Loading
Personal Weather Stations






























Interactive Weather Map
Tropical Storm Tracking
New forecast layout! Learn more

10-Day Weather Forecast

Advertisements
Track Severe Weather on mobile